Buoy 46928

sailwx.info

Track history (hours):
 
Tides and Currents Weather Stations Pressure Air Temp Water Temp Dewpoint Dewpoint Depression Visibility Wind Speed Wind Dir Waves Ship Positions

Drifting buoy 46928

Last reported at 2015-Mar-02 06:30 UTC. Time now 2015-Mar-02 11:19 UTC.
Position N 51°55' W 139°52'.

Barometer 1032.4 mb
Water temperature 8.4 ° C

Date/timePositionNaut miles runAvg speedWind from/ knotsBaromVisibWave heightAir tempDewpointWater temp
2015-Mar-02 06:30N 51°55' W 139°52'0 0.4 1032.4 8.4
2015-Mar-02 05:30N 51°55' W 139°52'1 0.3 1032.4 8.5
2015-Mar-02 03:30N 51°54' W 139°53'1 0.6 1032.4 8.5
2015-Mar-02 02:30N 51°54' W 139°53'0 0.1 1032.6 8.5
2015-Mar-02 01:30N 51°54' W 139°53'0 0.1 1032.7 8.5
2015-Mar-02 00:30N 51°54' W 139°53'0 0.3 1032.6 8.6
2015-Mar-01 23:30N 51°54' W 139°52'0 0.1 1032.6 8.5
2015-Mar-01 22:30N 51°54' W 139°52'2 0.8 1032.9 8.5
2015-Mar-01 20:30N 51°53' W 139°50'1 0.4 1033.2 8.4
2015-Mar-01 18:30N 51°54' W 139°51'0 0.0 1032.5 8.4
2015-Mar-01 17:30N 51°54' W 139°51'0 0.1 1032.3 8.4
2015-Mar-01 15:30N 51°54' W 139°52'0 0.5 1032.3 8.4
2015-Mar-01 14:30N 51°54' W 139°53'0 0.3 1032.1 8.4
2015-Mar-01 13:30N 51°54' W 139°53'1 0.3 1032.4 8.4
2015-Mar-01 09:30N 51°53' W 139°54'1 0.6 1032.9 8.4
2015-Mar-01 07:30N 51°53' W 139°53'0 0.0 1032.9 8.4
2015-Mar-01 06:30N 51°53' W 139°53'1 0.2 1032.9 8.4
2015-Mar-01 03:30N 51°53' W 139°52'1 0.5 1033.3 8.4
2015-Mar-01 02:30N 51°53' W 139°51'1 0.4 1033.3 8.4
2015-Mar-01 00:30N 51°54' W 139°52'0 0.1 1033.8 8.4
2015-Feb-28 20:30N 51°54' W 139°51'2 2.0 1034.1 8.4
2015-Feb-28 19:30N 51°52' W 139°50'1 0.4 1034.2 8.4
2015-Feb-28 17:30N 51°53' W 139°50'1 0.3 1033.6 8.4
2015-Feb-28 15:30N 51°53' W 139°49'0 0.2 1033.7 8.4
2015-Feb-28 14:30N 51°53' W 139°49'1 0.6 1033.9 8.4
2015-Feb-28 12:30N 51°53' W 139°47'1 0.9 1034.0 8.4
2015-Feb-28 11:30N 51°53' W 139°46'0 0.1 1034.2 8.4
2015-Feb-28 06:30N 51°54' W 139°45'0 0.2 1033.5 8.4
2015-Feb-28 05:30N 51°53' W 139°45'0 0.4 1033.6 8.4
2015-Feb-28 04:30N 51°53' W 139°44'1 1.3 1033.4 8.4
2015-Feb-28 03:30N 51°53' W 139°42'6 0.6 1033.0 8.4
2015-Feb-27 17:30N 51°55' W 139°33'0 0.0 1032.4 8.4
2015-Feb-27 16:30N 51°55' W 139°33'0 0.2 1031.7 8.4
2015-Feb-27 14:30N 51°55' W 139°32'0 0.3 1031.8 8.4
2015-Feb-27 13:30N 51°56' W 139°32'0 0.2 1032.0 8.4
2015-Feb-27 12:30N 51°55' W 139°32'2 1.6 1031.3 8.4
2015-Feb-27 11:30N 51°55' W 139°30'0 0.0 1031.3 8.4
2015-Feb-27 10:30N 51°55' W 139°30'3 0.6 1031.0 8.4
2015-Feb-27 05:30N 51°57' W 139°27'1 0.5 1029.2 8.4
2015-Feb-27 04:30N 51°58' W 139°27'1 1.2 1029.0 8.4
2015-Feb-27 03:30N 51°57' W 139°26'1 0.3 1028.5 8.4
2015-Feb-27 00:30N 51°58' W 139°26'3 0.4 1027.2 8.4
2015-Feb-26 16:30N 52°00' W 139°24'0 0.0 1022.3 8.4
2015-Feb-26 15:30N 52°00' W 139°24'1 0.8 1021.6 8.4
2015-Feb-26 14:30N 52°01' W 139°23'1 0.5 1021.2 8.4
2015-Feb-26 13:30N 52°02' W 139°23'1 0.6 1020.8 8.4
2015-Feb-26 11:30N 52°03' W 139°24'1 0.4 1020.3 8.4
2015-Feb-26 09:30N 52°04' W 139°23'0 0.1 1019.5 8.4
2015-Feb-26 05:30N 52°04' W 139°24'0 0.5 1019.0 8.5
2015-Feb-26 04:30N 52°04' W 139°24'1 0.4 1019.1 8.5
2015-Feb-26 02:30N 52°04' W 139°25'1 0.5 1019.1 8.5
2015-Feb-26 00:30N 52°05' W 139°26'0 0.1 1019.6 8.5
2015-Feb-25 23:30N 52°05' W 139°26'1 0.7 1020.4 8.5
2015-Feb-25 22:30N 52°05' W 139°27'0 0.4 1020.9 8.5
2015-Feb-25 21:30N 52°05' W 139°28'0 0.3 1021.7 8.5
2015-Feb-25 20:30N 52°05' W 139°28'1 0.3 1022.2 8.5
2015-Feb-25 18:30N 52°04' W 139°28'1 0.3 1022.6 8.4
2015-Feb-25 15:30N 52°05' W 139°29'0 0.1 1022.1 8.4
2015-Feb-25 13:30N 52°05' W 139°29'1 1.0 1022.0 8.4
2015-Feb-25 12:30N 52°05' W 139°31'1 0.6 1022.2 8.4
2015-Feb-25 11:30N 52°05' W 139°31'0 0.0 1022.4 8.5
2015-Feb-25 10:30N 52°05' W 139°31'2 0.3 1022.1 8.4
2015-Feb-25 03:30N 52°03' W 139°31'2 1.6 1024.0 8.4
2015-Feb-25 02:30N 52°02' W 139°29'2 2.0 1025.1 8.4
2015-Feb-25 01:30N 52°01' W 139°31'2 1.0 1026.3 8.4
2015-Feb-24 23:30N 51°59' W 139°30'2 0.9 1028.4 8.4
2015-Feb-24 21:30N 51°59' W 139°27'0 0.2 1030.3 8.4
2015-Feb-24 20:30N 51°59' W 139°27'1 0.9 1031.7 8.4
2015-Feb-24 19:30N 51°59' W 139°26'0 0.5 1031.9 8.4
2015-Feb-24 18:30N 51°59' W 139°25'1 0.9 1031.7 8.4
2015-Feb-24 17:30N 51°60' W 139°24'1 0.3 1031.5 8.4
2015-Feb-24 15:30N 51°60' W 139°23'0 0.5 1031.8 8.4
2015-Feb-24 14:30N 52°00' W 139°23'0 0.2 1032.3 8.4
2015-Feb-24 13:30N 52°00' W 139°23'0 0.5 1032.3 8.4
2015-Feb-24 12:30N 52°01' W 139°24'1 0.4 1032.0 8.4
2015-Feb-24 10:30N 52°01' W 139°23'0 0.0 1032.0 8.4
2015-Feb-24 09:30N 52°01' W 139°23'0 0.1 1032.0 8.4
2015-Feb-24 05:30N 52°01' W 139°23'2 0.9 1030.9 8.4
2015-Feb-24 03:30N 52°02' W 139°21'2 1.0 1029.7 8.4
2015-Feb-24 01:30N 52°04' W 139°21'1 0.6 1027.7 8.4
2015-Feb-24 00:30N 52°05' W 139°21'1 0.6 1027.2 8.4
2015-Feb-23 23:30N 52°05' W 139°22'2 0.5 1027.2 8.4
2015-Feb-23 20:30N 52°06' W 139°23'1 0.7 1026.1 8.4
2015-Feb-23 18:30N 52°08' W 139°25'1 0.9 1026.0 8.4
2015-Feb-23 17:30N 52°07' W 139°23'0 0.0 1025.5 8.4
2015-Feb-23 16:30N 52°07' W 139°23'0 0.5 1024.9 8.4
2015-Feb-23 15:30N 52°08' W 139°24'1 0.3 1024.5 8.4
2015-Feb-23 12:30N 52°08' W 139°22'1 0.8 1024.3 8.4
2015-Feb-23 11:30N 52°08' W 139°24'2 2.0 1024.5 8.4
2015-Feb-23 10:30N 52°08' W 139°27'0 0.0 1024.8 8.4
2015-Feb-23 09:30N 52°08' W 139°27'0 0.0 1024.9 8.4
2015-Feb-23 06:30N 52°08' W 139°27'0 0.0 1024.9 8.4
2015-Feb-23 05:30N 52°08' W 139°27'3 1.0 1024.7 8.4
2015-Feb-23 02:30N 52°06' W 139°30'0 0.3 1023.7 8.4
2015-Feb-23 01:30N 52°06' W 139°30'1 0.7 1023.4 8.5
2015-Feb-23 00:30N 52°06' W 139°30'1 0.3 1023.7 8.5
2015-Feb-22 22:30N 52°05' W 139°30'1 0.5 1024.3 8.4
2015-Feb-22 20:30N 52°04' W 139°30'0 0.5 1025.1 8.4
2015-Feb-22 19:30N 52°04' W 139°30'2 0.4 1025.4 8.4
2015-Feb-22 15:30N 52°03' W 139°33'0 0.4 1024.7 8.4
2015-Feb-22 14:30N 52°02' W 139°32'1 0.6 1024.3 8.4
2015-Feb-22 13:30N 52°02' W 139°32'1 1.3 1024.1 8.4
2015-Feb-22 12:30N 52°01' W 139°33'4 0.9 1023.9 8.4
2015-Feb-22 08:30N 51°57' W 139°31'0 0.2 1023.5 8.4
2015-Feb-22 06:30N 51°57' W 139°31'1 0.2 1023.2 8.4
2015-Feb-22 03:30N 51°56' W 139°31'0 0.5 1022.6 8.4
2015-Feb-22 02:30N 51°56' W 139°30'1 0.7 1022.2 8.4
2015-Feb-22 01:30N 51°56' W 139°31'1 0.5 1021.6 8.4
2015-Feb-21 23:30N 51°55' W 139°30'4 1.0 1021.1 8.4
2015-Feb-21 19:30N 51°51' W 139°30'1 0.3 1020.4 8.4
2015-Feb-21 17:30N 51°51' W 139°29'0 0.2 1020.0 8.4
2015-Feb-21 16:30N 51°51' W 139°29'2 0.4 1019.6 8.4
2015-Feb-21 11:30N 51°50' W 139°26'1 1.5 1019.2 8.4
2015-Feb-21 10:30N 51°50' W 139°23'3 0.6 1019.0 8.4
2015-Feb-21 05:30N 51°47' W 139°23'2 0.4 1018.1 8.4
2015-Feb-21 00:30N 51°46' W 139°22'1 0.7 1016.6 8.4
2015-Feb-20 23:30N 51°46' W 139°21'2 0.6 1015.9 8.4
2015-Feb-20 20:30N 51°44' W 139°20'2 1.9 1016.1 8.4
2015-Feb-20 19:30N 51°43' W 139°18'0 0.0 1016.1 8.4
2015-Feb-20 18:30N 51°43' W 139°18'1 0.6 1015.8 8.4
2015-Feb-20 17:30N 51°42' W 139°18'0 0.0 1015.8 8.4
2015-Feb-20 16:30N 51°42' W 139°18'1 0.2 1015.4 8.4
2015-Feb-20 13:30N 51°42' W 139°17'0 0.2 1016.7 8.4
2015-Feb-20 12:30N 51°42' W 139°18'1 0.9 1017.0 8.4
2015-Feb-20 11:30N 51°41' W 139°17'3 0.7 1017.6 8.4
2015-Feb-20 07:30N 51°39' W 139°14'   1019.8 8.4
Track history (hours):
 
Tides and Currents Weather Stations Pressure Air Temp Water Temp Dewpoint Dewpoint Depression Visibility Wind Speed Wind Dir Waves Ship Positions

Drifting buoy 46928

Last reported at 2015-Mar-02 06:30 UTC. Time now 2015-Mar-02 11:19 UTC.
Position N 51°55' W 139°52'.

Barometer 1032.4 mb
Water temperature 8.4 ° C

Date/timePositionNaut miles runAvg speedWind from/ knotsBaromVisibWave heightAir tempDewpointWater temp
2015-Mar-02 06:30N 51°55' W 139°52'0 0.4 1032.4 8.4
2015-Mar-02 05:30N 51°55' W 139°52'1 0.3 1032.4 8.5
2015-Mar-02 03:30N 51°54' W 139°53'1 0.6 1032.4 8.5
2015-Mar-02 02:30N 51°54' W 139°53'0 0.1 1032.6 8.5
2015-Mar-02 01:30N 51°54' W 139°53'0 0.1 1032.7 8.5
2015-Mar-02 00:30N 51°54' W 139°53'0 0.3 1032.6 8.6
2015-Mar-01 23:30N 51°54' W 139°52'0 0.1 1032.6 8.5
2015-Mar-01 22:30N 51°54' W 139°52'2 0.8 1032.9 8.5
2015-Mar-01 20:30N 51°53' W 139°50'1 0.4 1033.2 8.4
2015-Mar-01 18:30N 51°54' W 139°51'0 0.0 1032.5 8.4
2015-Mar-01 17:30N 51°54' W 139°51'0 0.1 1032.3 8.4
2015-Mar-01 15:30N 51°54' W 139°52'0 0.5 1032.3 8.4
2015-Mar-01 14:30N 51°54' W 139°53'0 0.3 1032.1 8.4
2015-Mar-01 13:30N 51°54' W 139°53'1 0.3 1032.4 8.4
2015-Mar-01 09:30N 51°53' W 139°54'1 0.6 1032.9 8.4
2015-Mar-01 07:30N 51°53' W 139°53'0 0.0 1032.9 8.4
2015-Mar-01 06:30N 51°53' W 139°53'1 0.2 1032.9 8.4
2015-Mar-01 03:30N 51°53' W 139°52'1 0.5 1033.3 8.4
2015-Mar-01 02:30N 51°53' W 139°51'1 0.4 1033.3 8.4
2015-Mar-01 00:30N 51°54' W 139°52'0 0.1 1033.8 8.4
2015-Feb-28 20:30N 51°54' W 139°51'2 2.0 1034.1 8.4
2015-Feb-28 19:30N 51°52' W 139°50'1 0.4 1034.2 8.4
2015-Feb-28 17:30N 51°53' W 139°50'1 0.3 1033.6 8.4
2015-Feb-28 15:30N 51°53' W 139°49'0 0.2 1033.7 8.4
2015-Feb-28 14:30N 51°53' W 139°49'1 0.6 1033.9 8.4
2015-Feb-28 12:30N 51°53' W 139°47'1 0.9 1034.0 8.4
2015-Feb-28 11:30N 51°53' W 139°46'0 0.1 1034.2 8.4
2015-Feb-28 06:30N 51°54' W 139°45'0 0.2 1033.5 8.4
2015-Feb-28 05:30N 51°53' W 139°45'0 0.4 1033.6 8.4
2015-Feb-28 04:30N 51°53' W 139°44'1 1.3 1033.4 8.4
2015-Feb-28 03:30N 51°53' W 139°42'6 0.6 1033.0 8.4
2015-Feb-27 17:30N 51°55' W 139°33'0 0.0 1032.4 8.4
2015-Feb-27 16:30N 51°55' W 139°33'0 0.2 1031.7 8.4
2015-Feb-27 14:30N 51°55' W 139°32'0 0.3 1031.8 8.4
2015-Feb-27 13:30N 51°56' W 139°32'0 0.2 1032.0 8.4
2015-Feb-27 12:30N 51°55' W 139°32'2 1.6 1031.3 8.4
2015-Feb-27 11:30N 51°55' W 139°30'0 0.0 1031.3 8.4
2015-Feb-27 10:30N 51°55' W 139°30'3 0.6 1031.0 8.4
2015-Feb-27 05:30N 51°57' W 139°27'1 0.5 1029.2 8.4
2015-Feb-27 04:30N 51°58' W 139°27'1 1.2 1029.0 8.4
2015-Feb-27 03:30N 51°57' W 139°26'1 0.3 1028.5 8.4
2015-Feb-27 00:30N 51°58' W 139°26'3 0.4 1027.2 8.4
2015-Feb-26 16:30N 52°00' W 139°24'0 0.0 1022.3 8.4
2015-Feb-26 15:30N 52°00' W 139°24'1 0.8 1021.6 8.4
2015-Feb-26 14:30N 52°01' W 139°23'1 0.5 1021.2 8.4
2015-Feb-26 13:30N 52°02' W 139°23'1 0.6 1020.8 8.4
2015-Feb-26 11:30N 52°03' W 139°24'1 0.4 1020.3 8.4
2015-Feb-26 09:30N 52°04' W 139°23'0 0.1 1019.5 8.4
2015-Feb-26 05:30N 52°04' W 139°24'0 0.5 1019.0 8.5
2015-Feb-26 04:30N 52°04' W 139°24'1 0.4 1019.1 8.5
2015-Feb-26 02:30N 52°04' W 139°25'1 0.5 1019.1 8.5
2015-Feb-26 00:30N 52°05' W 139°26'0 0.1 1019.6 8.5
2015-Feb-25 23:30N 52°05' W 139°26'1 0.7 1020.4 8.5
2015-Feb-25 22:30N 52°05' W 139°27'0 0.4 1020.9 8.5
2015-Feb-25 21:30N 52°05' W 139°28'0 0.3 1021.7 8.5
2015-Feb-25 20:30N 52°05' W 139°28'1 0.3 1022.2 8.5
2015-Feb-25 18:30N 52°04' W 139°28'1 0.3 1022.6 8.4
2015-Feb-25 15:30N 52°05' W 139°29'0 0.1 1022.1 8.4
2015-Feb-25 13:30N 52°05' W 139°29'1 1.0 1022.0 8.4
2015-Feb-25 12:30N 52°05' W 139°31'1 0.6 1022.2 8.4
2015-Feb-25 11:30N 52°05' W 139°31'0 0.0 1022.4 8.5
2015-Feb-25 10:30N 52°05' W 139°31'2 0.3 1022.1 8.4
2015-Feb-25 03:30N 52°03' W 139°31'2 1.6 1024.0 8.4
2015-Feb-25 02:30N 52°02' W 139°29'2 2.0 1025.1 8.4
2015-Feb-25 01:30N 52°01' W 139°31'2 1.0 1026.3 8.4
2015-Feb-24 23:30N 51°59' W 139°30'2 0.9 1028.4 8.4
2015-Feb-24 21:30N 51°59' W 139°27'0 0.2 1030.3 8.4
2015-Feb-24 20:30N 51°59' W 139°27'1 0.9 1031.7 8.4
2015-Feb-24 19:30N 51°59' W 139°26'0 0.5 1031.9 8.4
2015-Feb-24 18:30N 51°59' W 139°25'1 0.9 1031.7 8.4
2015-Feb-24 17:30N 51°60' W 139°24'1 0.3 1031.5 8.4
2015-Feb-24 15:30N 51°60' W 139°23'0 0.5 1031.8 8.4
2015-Feb-24 14:30N 52°00' W 139°23'0 0.2 1032.3 8.4
2015-Feb-24 13:30N 52°00' W 139°23'0 0.5 1032.3 8.4
2015-Feb-24 12:30N 52°01' W 139°24'1 0.4 1032.0 8.4
2015-Feb-24 10:30N 52°01' W 139°23'0 0.0 1032.0 8.4
2015-Feb-24 09:30N 52°01' W 139°23'0 0.1 1032.0 8.4
2015-Feb-24 05:30N 52°01' W 139°23'2 0.9 1030.9 8.4
2015-Feb-24 03:30N 52°02' W 139°21'2 1.0 1029.7 8.4
2015-Feb-24 01:30N 52°04' W 139°21'1 0.6 1027.7 8.4
2015-Feb-24 00:30N 52°05' W 139°21'1 0.6 1027.2 8.4
2015-Feb-23 23:30N 52°05' W 139°22'2 0.5 1027.2 8.4
2015-Feb-23 20:30N 52°06' W 139°23'1 0.7 1026.1 8.4
2015-Feb-23 18:30N 52°08' W 139°25'1 0.9 1026.0 8.4
2015-Feb-23 17:30N 52°07' W 139°23'0 0.0 1025.5 8.4
2015-Feb-23 16:30N 52°07' W 139°23'0 0.5 1024.9 8.4
2015-Feb-23 15:30N 52°08' W 139°24'1 0.3 1024.5 8.4
2015-Feb-23 12:30N 52°08' W 139°22'1 0.8 1024.3 8.4
2015-Feb-23 11:30N 52°08' W 139°24'2 2.0 1024.5 8.4
2015-Feb-23 10:30N 52°08' W 139°27'0 0.0 1024.8 8.4
2015-Feb-23 09:30N 52°08' W 139°27'0 0.0 1024.9 8.4
2015-Feb-23 06:30N 52°08' W 139°27'0 0.0 1024.9 8.4
2015-Feb-23 05:30N 52°08' W 139°27'3 1.0 1024.7 8.4
2015-Feb-23 02:30N 52°06' W 139°30'0 0.3 1023.7 8.4
2015-Feb-23 01:30N 52°06' W 139°30'1 0.7 1023.4 8.5
2015-Feb-23 00:30N 52°06' W 139°30'1 0.3 1023.7 8.5
2015-Feb-22 22:30N 52°05' W 139°30'1 0.5 1024.3 8.4
2015-Feb-22 20:30N 52°04' W 139°30'0 0.5 1025.1 8.4
2015-Feb-22 19:30N 52°04' W 139°30'2 0.4 1025.4 8.4
2015-Feb-22 15:30N 52°03' W 139°33'0 0.4 1024.7 8.4
2015-Feb-22 14:30N 52°02' W 139°32'1 0.6 1024.3 8.4
2015-Feb-22 13:30N 52°02' W 139°32'1 1.3 1024.1 8.4
2015-Feb-22 12:30N 52°01' W 139°33'4 0.9 1023.9 8.4
2015-Feb-22 08:30N 51°57' W 139°31'0 0.2 1023.5 8.4
2015-Feb-22 06:30N 51°57' W 139°31'1 0.2 1023.2 8.4
2015-Feb-22 03:30N 51°56' W 139°31'0 0.5 1022.6 8.4
2015-Feb-22 02:30N 51°56' W 139°30'1 0.7 1022.2 8.4
2015-Feb-22 01:30N 51°56' W 139°31'1 0.5 1021.6 8.4
2015-Feb-21 23:30N 51°55' W 139°30'4 1.0 1021.1 8.4
2015-Feb-21 19:30N 51°51' W 139°30'1 0.3 1020.4 8.4
2015-Feb-21 17:30N 51°51' W 139°29'0 0.2 1020.0 8.4
2015-Feb-21 16:30N 51°51' W 139°29'2 0.4 1019.6 8.4
2015-Feb-21 11:30N 51°50' W 139°26'1 1.5 1019.2 8.4
2015-Feb-21 10:30N 51°50' W 139°23'3 0.6 1019.0 8.4
2015-Feb-21 05:30N 51°47' W 139°23'2 0.4 1018.1 8.4
2015-Feb-21 00:30N 51°46' W 139°22'1 0.7 1016.6 8.4
2015-Feb-20 23:30N 51°46' W 139°21'2 0.6 1015.9 8.4
2015-Feb-20 20:30N 51°44' W 139°20'2 1.9 1016.1 8.4
2015-Feb-20 19:30N 51°43' W 139°18'0 0.0 1016.1 8.4
2015-Feb-20 18:30N 51°43' W 139°18'1 0.6 1015.8 8.4
2015-Feb-20 17:30N 51°42' W 139°18'0 0.0 1015.8 8.4
2015-Feb-20 16:30N 51°42' W 139°18'1 0.2 1015.4 8.4
2015-Feb-20 13:30N 51°42' W 139°17'0 0.2 1016.7 8.4
2015-Feb-20 12:30N 51°42' W 139°18'1 0.9 1017.0 8.4
2015-Feb-20 11:30N 51°41' W 139°17'3 0.7 1017.6 8.4
2015-Feb-20 07:30N 51°39' W 139°14'   1019.8 8.4

Dump ship's entire track history